createdAt,value
2022-09-25T00:00:00.846Z,12.6
2022-09-25T00:03:00.844Z,12.6
2022-09-25T00:06:00.748Z,12.6
2022-09-25T00:09:00.753Z,12.6
2022-09-25T00:12:00.787Z,12.6
2022-09-25T00:15:00.665Z,12.6
2022-09-25T00:18:00.743Z,12.6
2022-09-25T00:21:00.709Z,12.6
2022-09-25T00:24:00.841Z,12.6
2022-09-25T00:27:00.723Z,12.6
2022-09-25T00:30:00.809Z,12.6
2022-09-25T00:33:00.712Z,12.6
2022-09-25T00:36:00.735Z,12.6
2022-09-25T00:39:00.885Z,12.6
2022-09-25T00:42:00.829Z,12.6
2022-09-25T00:45:00.977Z,12.5
2022-09-25T00:48:00.771Z,12.5
2022-09-25T00:51:00.782Z,12.5
2022-09-25T00:54:00.701Z,12.5
2022-09-25T00:57:00.907Z,12.5
2022-09-25T01:00:00.764Z,12.5
2022-09-25T01:03:00.989Z,12.6
2022-09-25T01:06:00.726Z,12.6
2022-09-25T01:09:00.806Z,12.6
2022-09-25T01:12:00.767Z,12.6
2022-09-25T01:15:00.965Z,12.6
2022-09-25T01:18:00.852Z,12.6
2022-09-25T01:21:00.718Z,12.6
2022-09-25T01:24:00.842Z,12.6
2022-09-25T01:27:00.772Z,12.6
2022-09-25T01:30:00.860Z,12.6
2022-09-25T01:33:00.747Z,12.6
2022-09-25T01:36:00.826Z,12.6
2022-09-25T01:39:00.807Z,12.6
2022-09-25T01:42:00.981Z,12.6
2022-09-25T01:45:00.706Z,12.6
2022-09-25T01:48:00.775Z,12.6
2022-09-25T01:51:00.771Z,12.6
2022-09-25T01:54:00.731Z,12.6
2022-09-25T01:57:00.709Z,12.8
2022-09-25T02:00:00.912Z,12.8
2022-09-25T02:03:00.968Z,12.8
2022-09-25T02:06:00.741Z,12.7
2022-09-25T02:09:00.773Z,12.7
2022-09-25T02:12:00.700Z,12.7
2022-09-25T02:15:00.820Z,12.7
2022-09-25T02:18:01.027Z,12.7
2022-09-25T02:21:00.740Z,12.7
2022-09-25T02:24:00.732Z,12.7
2022-09-25T02:27:00.713Z,12.7
2022-09-25T02:30:00.791Z,12.7
2022-09-25T02:33:00.740Z,12.7
2022-09-25T02:36:00.774Z,12.7
2022-09-25T02:39:00.717Z,12.7
2022-09-25T02:42:00.767Z,12.7
2022-09-25T02:45:00.789Z,12.7
2022-09-25T02:48:00.772Z,12.7
2022-09-25T02:51:00.691Z,12.6
2022-09-25T02:54:00.749Z,12.6
2022-09-25T02:57:04.492Z,12.6
2022-09-25T03:00:00.779Z,12.6
2022-09-25T03:03:00.937Z,12.6
2022-09-25T03:06:00.709Z,12.6
2022-09-25T03:09:00.732Z,12.6
2022-09-25T03:12:00.723Z,12.6
2022-09-25T03:15:00.696Z,12.6
2022-09-25T03:18:00.737Z,12.6
2022-09-25T03:21:00.751Z,12.6
2022-09-25T03:24:00.720Z,12.6
2022-09-25T03:27:00.762Z,12.6
2022-09-25T03:30:00.750Z,12.6
2022-09-25T03:33:00.719Z,12.6
2022-09-25T03:36:00.784Z,12.6
2022-09-25T03:39:00.717Z,12.6
2022-09-25T03:42:00.722Z,12.6
2022-09-25T03:45:00.740Z,12.6
2022-09-25T03:48:00.753Z,12.6
2022-09-25T03:51:00.738Z,12.6
2022-09-25T03:54:00.749Z,12.6
2022-09-25T03:57:00.712Z,12.6
2022-09-25T04:00:00.792Z,12.6
2022-09-25T04:03:00.773Z,12.7
2022-09-25T04:06:00.830Z,12.7
2022-09-25T04:09:00.738Z,12.7
2022-09-25T04:12:00.711Z,12.7
2022-09-25T04:15:00.709Z,12.7
2022-09-25T04:18:06.310Z,12.7
2022-09-25T04:21:00.751Z,12.7
2022-09-25T04:24:00.751Z,12.7
2022-09-25T04:27:00.719Z,12.7
2022-09-25T04:30:00.749Z,12.7
2022-09-25T04:33:00.723Z,12.7
2022-09-25T04:36:00.751Z,12.7
2022-09-25T04:39:00.733Z,12.7
2022-09-25T04:42:00.751Z,12.7
2022-09-25T04:45:00.746Z,12.7
2022-09-25T04:48:00.751Z,12.7
2022-09-25T04:51:00.714Z,12.7
2022-09-25T04:54:00.709Z,12.7
2022-09-25T04:57:00.694Z,12.7
2022-09-25T05:00:00.748Z,12.7
2022-09-25T05:03:00.999Z,12.7
2022-09-25T05:06:00.751Z,12.7
2022-09-25T05:09:00.729Z,12.7
2022-09-25T05:12:00.728Z,12.7
2022-09-25T05:15:00.739Z,12.7
2022-09-25T05:18:00.769Z,12.7
2022-09-25T05:21:00.720Z,12.7
2022-09-25T05:24:00.780Z,12.7
2022-09-25T05:27:00.730Z,12.7
2022-09-25T05:30:01.090Z,12.7
2022-09-25T05:33:00.744Z,12.7
2022-09-25T05:36:00.828Z,12.7
2022-09-25T05:39:00.775Z,12.7
2022-09-25T05:42:00.752Z,12.7
2022-09-25T05:45:07.734Z,12.7
2022-09-25T05:48:00.788Z,12.7
2022-09-25T05:51:00.781Z,12.7
2022-09-25T05:54:00.722Z,12.7
2022-09-25T05:57:00.787Z,12.7
2022-09-25T06:00:00.814Z,12.7
2022-09-25T06:03:00.912Z,12.7
2022-09-25T06:06:00.727Z,12.7
2022-09-25T06:09:00.781Z,12.7
2022-09-25T06:12:00.730Z,12.7
2022-09-25T06:15:00.731Z,12.7
2022-09-25T06:18:00.774Z,12.7
2022-09-25T06:21:00.761Z,12.7
2022-09-25T06:24:00.769Z,12.8
2022-09-25T06:27:00.775Z,12.8
2022-09-25T06:30:00.860Z,12.8
2022-09-25T06:33:00.798Z,12.8
2022-09-25T06:36:01.162Z,12.8
2022-09-25T06:39:00.800Z,12.8
2022-09-25T06:42:00.724Z,12.8
2022-09-25T06:45:00.788Z,12.8
2022-09-25T06:48:00.769Z,12.8
2022-09-25T06:51:00.800Z,12.8
2022-09-25T06:54:00.770Z,12.8
2022-09-25T06:57:00.733Z,12.8
2022-09-25T07:00:00.799Z,12.8
2022-09-25T07:03:00.867Z,12.8
2022-09-25T07:06:00.805Z,12.8
2022-09-25T07:09:00.854Z,12.8
2022-09-25T07:12:00.773Z,12.8
2022-09-25T07:15:00.773Z,12.8
2022-09-25T07:18:00.792Z,12.9
2022-09-25T07:21:00.757Z,12.9
2022-09-25T07:24:00.823Z,12.9
2022-09-25T07:27:00.737Z,12.9
2022-09-25T07:30:00.809Z,12.9
2022-09-25T07:33:00.729Z,12.9
2022-09-25T07:36:00.776Z,12.9
2022-09-25T07:39:00.739Z,12.9
2022-09-25T07:42:00.773Z,12.9
2022-09-25T07:45:00.750Z,12.9
2022-09-25T07:48:00.820Z,12.9
2022-09-25T07:51:00.748Z,12.9
2022-09-25T07:54:00.796Z,12.9
2022-09-25T07:57:00.729Z,13.2
2022-09-25T08:00:00.794Z,13.2
2022-09-25T08:03:00.907Z,13.2
2022-09-25T08:06:00.786Z,13.2
2022-09-25T08:09:00.797Z,13.2
2022-09-25T08:12:00.730Z,13.1
2022-09-25T08:15:00.784Z,13.1
2022-09-25T08:18:00.738Z,13.1
2022-09-25T08:21:00.764Z,13.1
2022-09-25T08:24:00.790Z,13.1
2022-09-25T08:27:00.751Z,13.1
2022-09-25T08:30:00.869Z,13.1
2022-09-25T08:33:00.728Z,13.1
2022-09-25T08:36:00.783Z,13.1
2022-09-25T08:39:00.788Z,13.1
2022-09-25T08:42:00.773Z,13.1
2022-09-25T08:45:22.821Z,13.1
2022-09-25T08:48:00.792Z,13.1
2022-09-25T08:51:00.752Z,13.1
2022-09-25T08:54:00.786Z,13.1
2022-09-25T08:57:00.736Z,13.1
2022-09-25T09:00:02.991Z,13.1
2022-09-25T09:03:00.826Z,13.1
2022-09-25T09:06:00.784Z,13.1
2022-09-25T09:09:00.825Z,13.1
2022-09-25T09:12:00.780Z,13.1
2022-09-25T09:15:00.757Z,13.5
2022-09-25T09:18:00.838Z,13.5
2022-09-25T09:21:00.837Z,13.5
2022-09-25T09:24:00.733Z,13.5
2022-09-25T09:27:00.778Z,13.5
2022-09-25T09:30:06.327Z,13.5
2022-09-25T09:33:00.756Z,13.7
2022-09-25T09:36:00.732Z,13.7
2022-09-25T09:39:00.769Z,13.7
2022-09-25T09:42:00.748Z,13.7
2022-09-25T09:45:00.748Z,13.7
2022-09-25T09:48:00.734Z,13.7
2022-09-25T09:51:00.772Z,13.7
2022-09-25T09:54:00.796Z,13.7
2022-09-25T09:57:00.737Z,13.7
2022-09-25T10:00:05.517Z,13.7
2022-09-25T10:03:01.145Z,13.7
2022-09-25T10:06:00.765Z,13.7
2022-09-25T10:09:00.790Z,13.8
2022-09-25T10:12:00.752Z,13.8
2022-09-25T10:15:00.780Z,13.8
2022-09-25T10:18:00.781Z,13.8
2022-09-25T10:21:00.792Z,13.8
2022-09-25T10:24:00.823Z,13.8
2022-09-25T10:27:00.919Z,13.8
2022-09-25T10:30:00.781Z,13.8
2022-09-25T10:33:00.759Z,13.8
2022-09-25T10:36:00.763Z,13.8
2022-09-25T10:39:39.467Z,13.8
2022-09-25T10:42:00.733Z,13.8
2022-09-25T10:45:00.778Z,13.8
2022-09-25T10:48:00.797Z,13.8
2022-09-25T10:51:00.751Z,13.8
2022-09-25T10:54:00.745Z,13.8
2022-09-25T10:57:00.823Z,13.8
2022-09-25T11:00:00.855Z,13.8
2022-09-25T11:03:01.676Z,14.2
2022-09-25T11:06:00.734Z,14.2
2022-09-25T11:09:00.828Z,14.2
2022-09-25T11:12:00.764Z,14.2
2022-09-25T11:15:00.797Z,14.2
2022-09-25T11:18:00.767Z,14.2
2022-09-25T11:21:00.777Z,14.2
2022-09-25T11:24:00.822Z,14.2
2022-09-25T11:27:00.792Z,14.2
2022-09-25T11:30:00.760Z,14.2
2022-09-25T11:33:00.736Z,14.2
2022-09-25T11:36:00.767Z,14.2
2022-09-25T11:39:00.773Z,14.2
2022-09-25T11:42:00.772Z,14.2
2022-09-25T11:45:00.778Z,14.2
2022-09-25T11:48:00.764Z,14.2
2022-09-25T11:51:00.746Z,14.2
2022-09-25T11:54:33.087Z,14.2
2022-09-25T11:57:00.779Z,14.2
2022-09-25T12:00:00.794Z,14.2
2022-09-25T12:03:00.771Z,14.2
2022-09-25T12:06:00.739Z,14.2
2022-09-25T12:09:00.783Z,14.2
2022-09-25T12:12:00.837Z,14.2
2022-09-25T12:15:00.760Z,14.2
2022-09-25T12:18:00.720Z,14.2
2022-09-25T12:21:00.757Z,14.2
2022-09-25T12:24:00.761Z,14.2
2022-09-25T12:27:00.775Z,14.2
2022-09-25T12:30:00.821Z,14.2
2022-09-25T12:33:00.747Z,14.2
2022-09-25T12:36:00.761Z,14.2
2022-09-25T12:39:00.730Z,14.2
2022-09-25T12:42:00.814Z,14.2
2022-09-25T12:45:00.765Z,14.2
2022-09-25T12:48:00.772Z,14.2
2022-09-25T12:51:05.786Z,14.5
2022-09-25T12:54:00.763Z,14.5
2022-09-25T12:57:00.718Z,14.5
2022-09-25T13:00:00.811Z,14.6
2022-09-25T13:03:00.733Z,14.6
2022-09-25T13:06:00.758Z,14.6
2022-09-25T13:09:00.802Z,14.6
2022-09-25T13:12:00.786Z,14.6
2022-09-25T13:15:00.716Z,14.6
2022-09-25T13:18:00.767Z,14.6
2022-09-25T13:21:00.729Z,14.6
2022-09-25T13:24:00.794Z,14.6
2022-09-25T13:27:00.730Z,14.6
2022-09-25T13:30:00.861Z,14.8
2022-09-25T13:33:00.752Z,14.8
2022-09-25T13:36:01.040Z,14.8
2022-09-25T13:39:00.778Z,14.8
2022-09-25T13:42:00.779Z,14.8
2022-09-25T13:45:00.720Z,14.9
2022-09-25T13:48:07.435Z,14.9
2022-09-25T13:51:00.793Z,14.9
2022-09-25T13:54:00.761Z,14.9
2022-09-25T13:57:00.741Z,14.9
2022-09-25T14:00:00.785Z,14.9
2022-09-25T14:03:00.797Z,14.9
2022-09-25T14:06:00.818Z,14.9
2022-09-25T14:09:00.851Z,14.9
2022-09-25T14:12:00.742Z,14.9
2022-09-25T14:15:00.755Z,14.9
2022-09-25T14:18:00.906Z,14.9
2022-09-25T14:21:00.781Z,15.3
2022-09-25T14:24:00.766Z,15.3
2022-09-25T14:27:00.774Z,15.3
2022-09-25T14:30:00.839Z,15.2
2022-09-25T14:33:00.719Z,15.2
2022-09-25T14:36:00.839Z,15.2
2022-09-25T14:39:00.776Z,15.2
2022-09-25T14:42:00.736Z,15.2
2022-09-25T14:45:00.775Z,15.2
2022-09-25T14:48:00.786Z,15.2
2022-09-25T14:51:01.637Z,15.2
2022-09-25T14:54:00.745Z,15.2
2022-09-25T14:57:00.765Z,15.2
2022-09-25T15:00:00.828Z,15.2
2022-09-25T15:03:00.831Z,15.2
2022-09-25T15:06:00.793Z,15.2
2022-09-25T15:09:00.778Z,15.2
2022-09-25T15:12:00.764Z,15.2
2022-09-25T15:15:00.740Z,15.2
2022-09-25T15:18:00.758Z,15.2
2022-09-25T15:21:00.762Z,15.2
2022-09-25T15:24:00.765Z,15.2
2022-09-25T15:27:00.784Z,15.2
2022-09-25T15:30:00.795Z,15.2
2022-09-25T15:33:01.373Z,15.2
2022-09-25T15:36:00.776Z,15.2
2022-09-25T15:39:00.877Z,15.2
2022-09-25T15:42:00.767Z,15.2
2022-09-25T15:45:00.735Z,15.3
2022-09-25T15:48:00.729Z,15.3
2022-09-25T15:51:00.745Z,15.3
2022-09-25T15:54:00.774Z,15.3
2022-09-25T15:57:00.798Z,15.3
2022-09-25T16:00:00.943Z,15.3
2022-09-25T16:03:00.817Z,15.3
2022-09-25T16:06:00.805Z,15.3
2022-09-25T16:09:00.763Z,15.3
2022-09-25T16:12:00.771Z,15.3
2022-09-25T16:15:00.775Z,15.3
2022-09-25T16:18:06.050Z,15.3
2022-09-25T16:21:00.721Z,15.3
2022-09-25T16:24:00.734Z,15.3
2022-09-25T16:27:00.738Z,15.3
2022-09-25T16:30:04.871Z,15.3
2022-09-25T16:33:00.742Z,14.9
2022-09-25T16:36:16.788Z,14.8
2022-09-25T16:39:01.735Z,14.8
2022-09-25T16:42:00.792Z,14.8
2022-09-25T16:45:00.691Z,14.8
2022-09-25T16:48:00.761Z,14.8
2022-09-25T16:51:00.713Z,14.8
2022-09-25T16:54:00.762Z,14.8
2022-09-25T16:57:00.760Z,14.8
2022-09-25T17:00:00.778Z,14.8
2022-09-25T17:03:00.845Z,14.8
2022-09-25T17:06:00.792Z,14.8
2022-09-25T17:09:00.893Z,14.8
2022-09-25T17:12:00.757Z,14.8
2022-09-25T17:15:00.694Z,14.8
2022-09-25T17:18:00.711Z,14.8
2022-09-25T17:21:00.689Z,14.8
2022-09-25T17:24:00.743Z,14.6
2022-09-25T17:27:00.685Z,14.6
2022-09-25T17:30:00.808Z,14.6
2022-09-25T17:33:00.722Z,14.6
2022-09-25T17:36:00.737Z,14.6
2022-09-25T17:39:00.776Z,14.6
2022-09-25T17:42:00.762Z,14.6
2022-09-25T17:45:00.745Z,14.6
2022-09-25T17:48:00.741Z,14.6
2022-09-25T17:51:00.699Z,14.3
2022-09-25T17:54:00.774Z,14.3
2022-09-25T17:57:00.695Z,14.3
2022-09-25T18:00:00.805Z,14.3
2022-09-25T18:03:00.812Z,14.3
2022-09-25T18:06:00.750Z,14.3
2022-09-25T18:09:00.708Z,14.3
2022-09-25T18:12:00.839Z,14.3
2022-09-25T18:15:00.705Z,14.3
2022-09-25T18:18:00.985Z,14.3
2022-09-25T18:21:04.615Z,14.1
2022-09-25T18:24:00.731Z,14.1
2022-09-25T18:27:00.723Z,14.1
2022-09-25T18:30:00.730Z,14.1
2022-09-25T18:33:00.746Z,14.1
2022-09-25T18:36:00.715Z,14.1
2022-09-25T18:39:00.732Z,14.1
2022-09-25T18:42:00.701Z,14.1
2022-09-25T18:45:00.695Z,14.1
2022-09-25T18:48:00.728Z,14.1
2022-09-25T18:51:00.700Z,14.1
2022-09-25T18:54:00.730Z,14.1
2022-09-25T18:57:00.715Z,13.8
2022-09-25T19:00:00.686Z,13.8
2022-09-25T19:03:00.920Z,13.8
2022-09-25T19:06:00.727Z,13.8
2022-09-25T19:09:00.723Z,13.8
2022-09-25T19:12:00.771Z,13.8
2022-09-25T19:15:00.720Z,13.5
2022-09-25T19:18:00.723Z,13.5
2022-09-25T19:21:00.717Z,13.5
2022-09-25T19:24:00.698Z,13.5
2022-09-25T19:27:00.725Z,13.5
2022-09-25T19:30:00.736Z,13.5
2022-09-25T19:33:00.746Z,13.5
2022-09-25T19:36:00.743Z,13.5
2022-09-25T19:39:00.715Z,13.3
2022-09-25T19:42:00.717Z,13.3
2022-09-25T19:45:00.767Z,13.3
2022-09-25T19:48:00.708Z,13.3
2022-09-25T19:51:00.723Z,13.3
2022-09-25T19:54:00.678Z,13.3
2022-09-25T19:57:00.765Z,13.3
2022-09-25T20:00:00.828Z,13.3
2022-09-25T20:03:00.751Z,13.3
2022-09-25T20:06:00.691Z,13.3
2022-09-25T20:09:00.689Z,13.3
2022-09-25T20:12:00.727Z,13.3
2022-09-25T20:15:00.706Z,12.9
2022-09-25T20:18:00.758Z,12.9
2022-09-25T20:21:00.709Z,12.9
2022-09-25T20:24:00.690Z,12.9
2022-09-25T20:27:00.721Z,12.9
2022-09-25T20:30:00.727Z,12.9
2022-09-25T20:33:00.782Z,12.9
2022-09-25T20:36:00.728Z,12.9
2022-09-25T20:39:00.734Z,12.9
2022-09-25T20:42:00.773Z,12.9
2022-09-25T20:45:00.979Z,12.4
2022-09-25T20:48:00.714Z,12.4
2022-09-25T20:51:00.683Z,12.4
2022-09-25T20:54:00.788Z,12.4
2022-09-25T20:57:00.709Z,12.4
2022-09-25T21:00:00.793Z,12.4
2022-09-25T21:03:00.851Z,12.4
2022-09-25T21:06:00.711Z,12.4
2022-09-25T21:09:00.750Z,12.4
2022-09-25T21:12:00.700Z,12.4
2022-09-25T21:15:00.782Z,12.4
2022-09-25T21:18:00.704Z,12.4
2022-09-25T21:21:00.714Z,12.4
2022-09-25T21:24:00.722Z,12.4
2022-09-25T21:27:00.717Z,12.4
2022-09-25T21:30:00.703Z,12.4
2022-09-25T21:33:00.699Z,12.4
2022-09-25T21:36:00.739Z,12.4
2022-09-25T21:39:00.722Z,12.4
2022-09-25T21:42:00.774Z,12.4
2022-09-25T21:45:00.709Z,12.4
2022-09-25T21:48:00.711Z,12.4
2022-09-25T21:51:00.700Z,12.4
2022-09-25T21:54:00.718Z,12.4
2022-09-25T21:57:00.707Z,12.4
2022-09-25T22:00:00.940Z,12.4
2022-09-25T22:03:00.818Z,12.4
2022-09-25T22:06:00.692Z,11.4
2022-09-25T22:09:00.730Z,11.4
2022-09-25T22:12:00.716Z,11.3
2022-09-25T22:15:00.742Z,11.3
2022-09-25T22:18:00.690Z,11.3
2022-09-25T22:21:00.720Z,11.3
2022-09-25T22:24:00.707Z,11.3
2022-09-25T22:27:00.719Z,11.3
2022-09-25T22:30:00.736Z,11.3
2022-09-25T22:33:00.709Z,11.3
2022-09-25T22:36:00.725Z,11.3
2022-09-25T22:39:00.752Z,10.9
2022-09-25T22:42:00.730Z,10.9
2022-09-25T22:45:00.705Z,10.9
2022-09-25T22:48:00.807Z,10.9
2022-09-25T22:51:00.698Z,10.9
2022-09-25T22:54:00.720Z,10.9
2022-09-25T22:57:00.748Z,10.9
2022-09-25T23:00:00.764Z,10.9
2022-09-25T23:03:00.689Z,10.9
2022-09-25T23:06:00.711Z,10.9
2022-09-25T23:09:00.737Z,10.5
2022-09-25T23:12:00.747Z,10.5
2022-09-25T23:15:00.685Z,10.5
2022-09-25T23:18:00.699Z,10.5
2022-09-25T23:21:00.744Z,10.5
2022-09-25T23:24:00.703Z,10.5
2022-09-25T23:27:00.794Z,10.5
2022-09-25T23:30:00.713Z,10.5
2022-09-25T23:33:00.705Z,10.5
2022-09-25T23:36:00.711Z,10
2022-09-25T23:39:00.734Z,10
2022-09-25T23:42:00.695Z,10
2022-09-25T23:45:00.731Z,10
2022-09-25T23:48:00.717Z,10
2022-09-25T23:51:00.732Z,10
2022-09-25T23:54:00.745Z,10
2022-09-25T23:57:00.718Z,9.7
